Terminal Aerodrome Forecast
Issued by NWS

Home | Current Version | Previous Version | Text Only | Print | Product List | Glossary On
Versions: 1 2 3 4 5 6 7 8 9 10 11 12 13 14 15 16 17 18 19
000
FTUS45 KTFX 181134
TAFCTB
TAF
KCTB 181134Z 1812/1912 35011KT P6SM VCSH SCT060 BKN100
      TEMPO 1812/1814 -SHRA BKN040
     FM181500 34014KT P6SM SCT040 BKN070
     FM182200 32005KT P6SM SCT070 BKN120=

USA.gov is the U.S. government's official web portal to all federal, state and local government web resources and services.